Terminal Aerodrome Forecast
Issued by NWS Cleveland, OH

Home | Current Version | Previous Version | Graphics & Text | Print | Product List | Glossary On
Versions: 1 2 3 4 5 6 7 8 9 10 11 12 13 14 15 16 17 18 19 20 21 22 23 24
688
FTUS41 KCLE 101725
TAFYNG
TAF
KYNG 101725Z 1018/1118 24014G24KT P6SM BKN025 OVC035
     FM102000 24014G24KT P6SM SCT025 OVC080
     FM102300 23010KT P6SM OVC050
     FM110200 24009KT P6SM SCT020 OVC035
      TEMPO 1102/1105 BKN020 OVC035
     FM110500 25008KT P6SM VCSH OVC020
      TEMPO 1105/1107 3SM -SN BR BKN015 OVC020
     FM110700 25007KT P6SM SCT009 OVC015
     FM111700 22006KT P6SM OVC030=

USA.gov is the U.S. government's official web portal to all federal, state and local government web resources and services.